sensor_id;sensor_type;location;lat;lon;timestamp;temperature;humidity
10245;DHT22;5167;52.164;10.530;2022-10-16T00:00:56;18.00;52.80
10245;DHT22;5167;52.164;10.530;2022-10-16T00:03:22;18.00;52.90
10245;DHT22;5167;52.164;10.530;2022-10-16T00:05:48;17.90;52.50
10245;DHT22;5167;52.164;10.530;2022-10-16T00:08:14;17.90;52.70
10245;DHT22;5167;52.164;10.530;2022-10-16T00:10:40;17.90;52.50
10245;DHT22;5167;52.164;10.530;2022-10-16T00:13:06;17.90;53.20
10245;DHT22;5167;52.164;10.530;2022-10-16T00:15:36;17.80;52.20
10245;DHT22;5167;52.164;10.530;2022-10-16T00:18:03;17.80;52.00
10245;DHT22;5167;52.164;10.530;2022-10-16T00:20:29;17.70;52.20
10245;DHT22;5167;52.164;10.530;2022-10-16T00:22:56;17.80;51.80
10245;DHT22;5167;52.164;10.530;2022-10-16T00:25:22;17.80;52.40
10245;DHT22;5167;52.164;10.530;2022-10-16T00:27:48;17.70;52.40
10245;DHT22;5167;52.164;10.530;2022-10-16T00:30:13;17.70;51.90
10245;DHT22;5167;52.164;10.530;2022-10-16T00:32:39;17.70;52.30
10245;DHT22;5167;52.164;10.530;2022-10-16T00:35:05;17.60;52.30
10245;DHT22;5167;52.164;10.530;2022-10-16T00:37:30;17.70;52.10
10245;DHT22;5167;52.164;10.530;2022-10-16T00:39:56;17.60;52.10
10245;DHT22;5167;52.164;10.530;2022-10-16T00:42:22;17.60;52.00
10245;DHT22;5167;52.164;10.530;2022-10-16T00:44:50;17.60;51.90
10245;DHT22;5167;52.164;10.530;2022-10-16T00:47:30;17.60;52.50
10245;DHT22;5167;52.164;10.530;2022-10-16T00:50:03;17.50;52.60
10245;DHT22;5167;52.164;10.530;2022-10-16T00:52:30;17.50;52.50
10245;DHT22;5167;52.164;10.530;2022-10-16T00:54:56;17.40;53.10
10245;DHT22;5167;52.164;10.530;2022-10-16T00:57:23;17.40;53.60
10245;DHT22;5167;52.164;10.530;2022-10-16T00:59:49;17.40;53.80
10245;DHT22;5167;52.164;10.530;2022-10-16T01:02:15;17.40;53.50
10245;DHT22;5167;52.164;10.530;2022-10-16T01:04:49;17.40;54.00
10245;DHT22;5167;52.164;10.530;2022-10-16T01:09:57;17.30;54.60
10245;DHT22;5167;52.164;10.530;2022-10-16T01:12:44;17.30;54.80
10245;DHT22;5167;52.164;10.530;2022-10-16T01:15:30;17.20;54.80
10245;DHT22;5167;52.164;10.530;2022-10-16T01:18:14;17.30;55.30
10245;DHT22;5167;52.164;10.530;2022-10-16T01:20:54;17.20;54.80
10245;DHT22;5167;52.164;10.530;2022-10-16T01:32:00;17.10;56.50
10245;DHT22;5167;52.164;10.530;2022-10-16T01:34:37;17.00;55.60
10245;DHT22;5167;52.164;10.530;2022-10-16T01:37:12;17.00;55.80
10245;DHT22;5167;52.164;10.530;2022-10-16T01:39:40;17.00;57.50
10245;DHT22;5167;52.164;10.530;2022-10-16T01:42:19;17.00;57.60
10245;DHT22;5167;52.164;10.530;2022-10-16T01:44:48;17.00;57.70
10245;DHT22;5167;52.164;10.530;2022-10-16T01:47:17;17.00;57.40
10245;DHT22;5167;52.164;10.530;2022-10-16T01:49:45;17.00;57.90
10245;DHT22;5167;52.164;10.530;2022-10-16T01:52:16;16.90;58.10
10245;DHT22;5167;52.164;10.530;2022-10-16T01:54:45;16.90;58.20
10245;DHT22;5167;52.164;10.530;2022-10-16T01:57:12;16.90;59.30
10245;DHT22;5167;52.164;10.530;2022-10-16T01:59:43;16.90;59.70
10245;DHT22;5167;52.164;10.530;2022-10-16T02:02:10;16.80;60.00
10245;DHT22;5167;52.164;10.530;2022-10-16T02:04:49;16.90;60.60
10245;DHT22;5167;52.164;10.530;2022-10-16T02:07:17;16.80;60.80
10245;DHT22;5167;52.164;10.530;2022-10-16T02:09:42;16.80;61.10
10245;DHT22;5167;52.164;10.530;2022-10-16T02:12:14;16.70;62.20
10245;DHT22;5167;52.164;10.530;2022-10-16T02:14:41;16.80;63.10
10245;DHT22;5167;52.164;10.530;2022-10-16T02:17:12;16.70;63.40
10245;DHT22;5167;52.164;10.530;2022-10-16T02:19:38;16.80;63.30
10245;DHT22;5167;52.164;10.530;2022-10-16T02:22:05;16.80;63.60
10245;DHT22;5167;52.164;10.530;2022-10-16T02:24:38;16.70;63.80
10245;DHT22;5167;52.164;10.530;2022-10-16T02:27:17;16.70;64.30
10245;DHT22;5167;52.164;10.530;2022-10-16T02:29:48;16.80;63.80
10245;DHT22;5167;52.164;10.530;2022-10-16T02:32:21;16.80;63.90
10245;DHT22;5167;52.164;10.530;2022-10-16T02:34:49;16.80;63.90
10245;DHT22;5167;52.164;10.530;2022-10-16T02:37:17;16.80;64.00
10245;DHT22;5167;52.164;10.530;2022-10-16T02:39:43;16.80;63.90
10245;DHT22;5167;52.164;10.530;2022-10-16T02:42:17;16.80;63.90
10245;DHT22;5167;52.164;10.530;2022-10-16T02:44:43;16.70;64.40
10245;DHT22;5167;52.164;10.530;2022-10-16T02:47:08;16.80;64.40
10245;DHT22;5167;52.164;10.530;2022-10-16T02:49:34;16.80;64.00
10245;DHT22;5167;52.164;10.530;2022-10-16T02:52:00;16.80;64.20
10245;DHT22;5167;52.164;10.530;2022-10-16T02:54:25;16.80;64.10
10245;DHT22;5167;52.164;10.530;2022-10-16T02:56:51;16.80;64.20
10245;DHT22;5167;52.164;10.530;2022-10-16T02:59:17;16.90;63.70
10245;DHT22;5167;52.164;10.530;2022-10-16T03:01:42;16.80;63.80
10245;DHT22;5167;52.164;10.530;2022-10-16T03:04:08;16.90;63.70
10245;DHT22;5167;52.164;10.530;2022-10-16T03:06:34;16.90;64.30
10245;DHT22;5167;52.164;10.530;2022-10-16T03:08:59;16.90;63.60
10245;DHT22;5167;52.164;10.530;2022-10-16T03:11:25;16.90;63.40
10245;DHT22;5167;52.164;10.530;2022-10-16T03:13:51;16.90;62.60
10245;DHT22;5167;52.164;10.530;2022-10-16T03:16:17;17.00;62.60
10245;DHT22;5167;52.164;10.530;2022-10-16T03:18:42;17.00;62.10
10245;DHT22;5167;52.164;10.530;2022-10-16T03:21:08;16.90;60.90
10245;DHT22;5167;52.164;10.530;2022-10-16T03:23:33;16.90;62.00
10245;DHT22;5167;52.164;10.530;2022-10-16T03:25:59;16.80;61.80
10245;DHT22;5167;52.164;10.530;2022-10-16T03:28:24;16.90;61.80
10245;DHT22;5167;52.164;10.530;2022-10-16T03:30:50;16.90;61.00
10245;DHT22;5167;52.164;10.530;2022-10-16T03:33:16;16.80;60.80
10245;DHT22;5167;52.164;10.530;2022-10-16T03:35:41;16.80;60.90
10245;DHT22;5167;52.164;10.530;2022-10-16T03:38:07;16.80;60.40
10245;DHT22;5167;52.164;10.530;2022-10-16T03:40:32;16.70;60.60
10245;DHT22;5167;52.164;10.530;2022-10-16T03:42:58;16.70;60.40
10245;DHT22;5167;52.164;10.530;2022-10-16T03:45:24;16.60;60.80
10245;DHT22;5167;52.164;10.530;2022-10-16T03:47:50;16.60;60.30
10245;DHT22;5167;52.164;10.530;2022-10-16T03:50:15;16.70;61.30
10245;DHT22;5167;52.164;10.530;2022-10-16T03:52:41;16.60;61.20
10245;DHT22;5167;52.164;10.530;2022-10-16T03:55:07;16.60;61.10
10245;DHT22;5167;52.164;10.530;2022-10-16T03:57:33;16.60;61.30
10245;DHT22;5167;52.164;10.530;2022-10-16T03:59:58;16.50;61.20
10245;DHT22;5167;52.164;10.530;2022-10-16T04:02:24;16.50;61.30
10245;DHT22;5167;52.164;10.530;2022-10-16T04:04:49;16.50;61.50
10245;DHT22;5167;52.164;10.530;2022-10-16T04:07:15;16.40;60.70
10245;DHT22;5167;52.164;10.530;2022-10-16T04:09:40;16.40;60.60
10245;DHT22;5167;52.164;10.530;2022-10-16T04:12:07;16.30;61.00
10245;DHT22;5167;52.164;10.530;2022-10-16T04:14:32;16.40;60.80
10245;DHT22;5167;52.164;10.530;2022-10-16T04:16:58;16.30;61.10
10245;DHT22;5167;52.164;10.530;2022-10-16T04:19:23;16.20;61.50
10245;DHT22;5167;52.164;10.530;2022-10-16T04:21:49;16.30;61.30
10245;DHT22;5167;52.164;10.530;2022-10-16T04:24:15;16.20;61.00
10245;DHT22;5167;52.164;10.530;2022-10-16T04:26:40;16.20;60.90
10245;DHT22;5167;52.164;10.530;2022-10-16T04:29:06;16.10;61.30
10245;DHT22;5167;52.164;10.530;2022-10-16T04:31:32;16.10;61.20
10245;DHT22;5167;52.164;10.530;2022-10-16T04:33:58;16.10;61.20
10245;DHT22;5167;52.164;10.530;2022-10-16T04:36:24;16.10;61.00
10245;DHT22;5167;52.164;10.530;2022-10-16T04:38:49;16.00;61.30
10245;DHT22;5167;52.164;10.530;2022-10-16T04:41:15;16.00;61.90
10245;DHT22;5167;52.164;10.530;2022-10-16T04:43:40;16.00;62.70
10245;DHT22;5167;52.164;10.530;2022-10-16T04:46:06;16.00;62.70
10245;DHT22;5167;52.164;10.530;2022-10-16T04:48:32;16.00;63.50
10245;DHT22;5167;52.164;10.530;2022-10-16T04:50:57;16.00;63.90
10245;DHT22;5167;52.164;10.530;2022-10-16T04:53:23;16.00;64.70
10245;DHT22;5167;52.164;10.530;2022-10-16T04:55:49;16.00;64.80
10245;DHT22;5167;52.164;10.530;2022-10-16T04:58:14;16.00;65.50
10245;DHT22;5167;52.164;10.530;2022-10-16T05:00:40;16.10;65.90
10245;DHT22;5167;52.164;10.530;2022-10-16T05:03:06;16.00;66.40
10245;DHT22;5167;52.164;10.530;2022-10-16T05:05:34;16.10;66.60
10245;DHT22;5167;52.164;10.530;2022-10-16T05:07:59;15.90;67.10
10245;DHT22;5167;52.164;10.530;2022-10-16T05:10:25;15.90;67.10
10245;DHT22;5167;52.164;10.530;2022-10-16T05:12:50;16.00;68.30
10245;DHT22;5167;52.164;10.530;2022-10-16T05:15:17;16.00;68.30
10245;DHT22;5167;52.164;10.530;2022-10-16T05:17:42;16.00;68.90
10245;DHT22;5167;52.164;10.530;2022-10-16T05:20:08;16.00;68.80
10245;DHT22;5167;52.164;10.530;2022-10-16T05:22:33;16.00;68.80
10245;DHT22;5167;52.164;10.530;2022-10-16T05:24:59;15.90;68.40
10245;DHT22;5167;52.164;10.530;2022-10-16T05:27:24;16.00;69.00
10245;DHT22;5167;52.164;10.530;2022-10-16T05:29:50;15.90;69.00
10245;DHT22;5167;52.164;10.530;2022-10-16T05:32:17;15.90;69.10
10245;DHT22;5167;52.164;10.530;2022-10-16T05:34:43;15.90;68.90
10245;DHT22;5167;52.164;10.530;2022-10-16T05:37:09;15.90;69.70
10245;DHT22;5167;52.164;10.530;2022-10-16T05:39:37;15.90;69.50
10245;DHT22;5167;52.164;10.530;2022-10-16T05:42:03;15.90;70.40
10245;DHT22;5167;52.164;10.530;2022-10-16T05:44:29;15.90;71.10
10245;DHT22;5167;52.164;10.530;2022-10-16T05:46:54;15.90;71.70
10245;DHT22;5167;52.164;10.530;2022-10-16T05:49:20;15.90;72.10
10245;DHT22;5167;52.164;10.530;2022-10-16T05:51:45;16.00;72.60
10245;DHT22;5167;52.164;10.530;2022-10-16T05:54:11;15.90;72.60
10245;DHT22;5167;52.164;10.530;2022-10-16T05:56:37;15.90;73.10
10245;DHT22;5167;52.164;10.530;2022-10-16T05:59:05;15.90;73.30
10245;DHT22;5167;52.164;10.530;2022-10-16T06:01:31;16.00;73.70
10245;DHT22;5167;52.164;10.530;2022-10-16T06:03:57;16.00;73.50
10245;DHT22;5167;52.164;10.530;2022-10-16T06:06:25;16.00;73.20
10245;DHT22;5167;52.164;10.530;2022-10-16T06:08:52;16.00;73.10
10245;DHT22;5167;52.164;10.530;2022-10-16T06:11:20;15.90;72.40
10245;DHT22;5167;52.164;10.530;2022-10-16T06:13:55;16.10;73.20
10245;DHT22;5167;52.164;10.530;2022-10-16T06:16:22;16.00;72.90
10245;DHT22;5167;52.164;10.530;2022-10-16T06:18:50;15.90;73.00
10245;DHT22;5167;52.164;10.530;2022-10-16T06:21:20;16.00;72.80
10245;DHT22;5167;52.164;10.530;2022-10-16T06:23:47;16.00;72.80
10245;DHT22;5167;52.164;10.530;2022-10-16T06:26:18;16.00;72.40
10245;DHT22;5167;52.164;10.530;2022-10-16T06:28:44;16.00;73.00
10245;DHT22;5167;52.164;10.530;2022-10-16T06:31:11;16.00;73.70
10245;DHT22;5167;52.164;10.530;2022-10-16T06:33:37;16.00;74.20
10245;DHT22;5167;52.164;10.530;2022-10-16T06:38:30;16.00;77.70
10245;DHT22;5167;52.164;10.530;2022-10-16T06:40:56;16.10;80.20
10245;DHT22;5167;52.164;10.530;2022-10-16T06:43:21;16.10;82.70
10245;DHT22;5167;52.164;10.530;2022-10-16T06:45:54;16.10;86.50
10245;DHT22;5167;52.164;10.530;2022-10-16T06:48:21;16.20;88.70
10245;DHT22;5167;52.164;10.530;2022-10-16T06:51:04;16.30;90.00
10245;DHT22;5167;52.164;10.530;2022-10-16T06:53:34;16.40;92.00
10245;DHT22;5167;52.164;10.530;2022-10-16T06:56:18;16.40;93.90
10245;DHT22;5167;52.164;10.530;2022-10-16T06:58:44;16.40;95.30
10245;DHT22;5167;52.164;10.530;2022-10-16T07:01:11;16.60;96.20
10245;DHT22;5167;52.164;10.530;2022-10-16T07:03:38;16.60;97.00
10245;DHT22;5167;52.164;10.530;2022-10-16T07:06:06;16.70;97.30
10245;DHT22;5167;52.164;10.530;2022-10-16T07:08:36;16.70;97.20
10245;DHT22;5167;52.164;10.530;2022-10-16T07:11:09;16.80;97.10
10245;DHT22;5167;52.164;10.530;2022-10-16T07:13:36;16.70;96.40
10245;DHT22;5167;52.164;10.530;2022-10-16T07:18:32;16.80;96.70
10245;DHT22;5167;52.164;10.530;2022-10-16T07:21:09;16.90;96.20
10245;DHT22;5167;52.164;10.530;2022-10-16T07:23:35;16.90;96.00
10245;DHT22;5167;52.164;10.530;2022-10-16T07:26:01;17.00;95.70
10245;DHT22;5167;52.164;10.530;2022-10-16T07:28:27;16.90;95.10
10245;DHT22;5167;52.164;10.530;2022-10-16T07:30:53;17.00;95.30
10245;DHT22;5167;52.164;10.530;2022-10-16T07:33:19;16.90;95.30
10245;DHT22;5167;52.164;10.530;2022-10-16T07:35:53;17.00;94.10
10245;DHT22;5167;52.164;10.530;2022-10-16T07:38:19;17.00;94.10
10245;DHT22;5167;52.164;10.530;2022-10-16T07:40:46;17.10;93.90
10245;DHT22;5167;52.164;10.530;2022-10-16T07:43:11;17.10;93.00
10245;DHT22;5167;52.164;10.530;2022-10-16T07:45:37;17.10;93.40
10245;DHT22;5167;52.164;10.530;2022-10-16T07:48:03;17.10;91.60
10245;DHT22;5167;52.164;10.530;2022-10-16T07:50:29;17.20;90.30
10245;DHT22;5167;52.164;10.530;2022-10-16T07:52:54;17.20;90.80
10245;DHT22;5167;52.164;10.530;2022-10-16T07:55:20;17.30;89.20
10245;DHT22;5167;52.164;10.530;2022-10-16T07:57:45;17.30;89.00
10245;DHT22;5167;52.164;10.530;2022-10-16T08:00:11;17.40;87.50
10245;DHT22;5167;52.164;10.530;2022-10-16T08:02:39;17.50;85.10
10245;DHT22;5167;52.164;10.530;2022-10-16T08:05:06;17.60;85.30
10245;DHT22;5167;52.164;10.530;2022-10-16T08:07:31;17.70;82.80
10245;DHT22;5167;52.164;10.530;2022-10-16T08:09:57;17.70;80.20
10245;DHT22;5167;52.164;10.530;2022-10-16T08:12:24;17.70;76.00
10245;DHT22;5167;52.164;10.530;2022-10-16T08:14:49;17.80;74.30
10245;DHT22;5167;52.164;10.530;2022-10-16T08:17:15;17.90;71.20
10245;DHT22;5167;52.164;10.530;2022-10-16T08:19:45;17.90;69.00
10245;DHT22;5167;52.164;10.530;2022-10-16T08:22:11;18.00;67.20
10245;DHT22;5167;52.164;10.530;2022-10-16T08:24:36;18.00;64.60
10245;DHT22;5167;52.164;10.530;2022-10-16T08:27:02;18.00;64.80
10245;DHT22;5167;52.164;10.530;2022-10-16T08:29:28;18.10;61.80
10245;DHT22;5167;52.164;10.530;2022-10-16T08:31:54;18.10;60.20
10245;DHT22;5167;52.164;10.530;2022-10-16T08:34:19;18.20;58.80
10245;DHT22;5167;52.164;10.530;2022-10-16T08:36:45;18.20;58.70
10245;DHT22;5167;52.164;10.530;2022-10-16T08:39:10;18.30;57.60
10245;DHT22;5167;52.164;10.530;2022-10-16T08:44:26;18.50;54.10
10245;DHT22;5167;52.164;10.530;2022-10-16T08:47:22;18.50;53.40
10245;DHT22;5167;52.164;10.530;2022-10-16T08:49:59;18.60;51.90
10245;DHT22;5167;52.164;10.530;2022-10-16T08:52:29;18.80;50.20
10245;DHT22;5167;52.164;10.530;2022-10-16T08:54:56;18.80;48.10
10245;DHT22;5167;52.164;10.530;2022-10-16T08:57:24;19.00;47.10
10245;DHT22;5167;52.164;10.530;2022-10-16T08:59:52;18.90;45.30
10245;DHT22;5167;52.164;10.530;2022-10-16T09:08:27;19.00;41.90
10245;DHT22;5167;52.164;10.530;2022-10-16T09:11:10;18.90;41.10
10245;DHT22;5167;52.164;10.530;2022-10-16T09:16:30;18.90;40.10
10245;DHT22;5167;52.164;10.530;2022-10-16T09:19:05;19.00;41.10
10245;DHT22;5167;52.164;10.530;2022-10-16T09:21:44;19.10;40.70
10245;DHT22;5167;52.164;10.530;2022-10-16T09:24:13;19.00;38.90
10245;DHT22;5167;52.164;10.530;2022-10-16T09:26:39;19.10;39.30
10245;DHT22;5167;52.164;10.530;2022-10-16T09:29:05;19.10;38.50
10245;DHT22;5167;52.164;10.530;2022-10-16T09:31:30;19.20;37.40
10245;DHT22;5167;52.164;10.530;2022-10-16T09:34:00;19.20;37.20
10245;DHT22;5167;52.164;10.530;2022-10-16T09:36:39;19.20;36.50
10245;DHT22;5167;52.164;10.530;2022-10-16T09:39:08;19.20;36.90
10245;DHT22;5167;52.164;10.530;2022-10-16T09:41:36;19.10;37.00
10245;DHT22;5167;52.164;10.530;2022-10-16T09:44:04;19.10;35.80
10245;DHT22;5167;52.164;10.530;2022-10-16T09:46:35;19.10;35.20
10245;DHT22;5167;52.164;10.530;2022-10-16T09:49:18;19.20;34.80
10245;DHT22;5167;52.164;10.530;2022-10-16T09:51:45;19.20;34.30
10245;DHT22;5167;52.164;10.530;2022-10-16T09:54:14;19.20;33.70
10245;DHT22;5167;52.164;10.530;2022-10-16T09:56:40;19.20;34.00
10245;DHT22;5167;52.164;10.530;2022-10-16T09:59:12;19.20;34.00
10245;DHT22;5167;52.164;10.530;2022-10-16T10:01:40;19.20;33.30
10245;DHT22;5167;52.164;10.530;2022-10-16T10:04:07;19.20;33.10
10245;DHT22;5167;52.164;10.530;2022-10-16T10:06:35;19.20;33.30
10245;DHT22;5167;52.164;10.530;2022-10-16T10:11:44;19.40;33.50
10245;DHT22;5167;52.164;10.530;2022-10-16T10:14:23;19.50;32.70
10245;DHT22;5167;52.164;10.530;2022-10-16T10:16:50;19.60;31.20
10245;DHT22;5167;52.164;10.530;2022-10-16T10:19:22;19.80;30.40
10245;DHT22;5167;52.164;10.530;2022-10-16T10:21:49;19.90;26.90
10245;DHT22;5167;52.164;10.530;2022-10-16T10:24:17;20.00;26.40
10245;DHT22;5167;52.164;10.530;2022-10-16T10:27:09;20.10;26.10
10245;DHT22;5167;52.164;10.530;2022-10-16T10:29:48;20.30;27.40
10245;DHT22;5167;52.164;10.530;2022-10-16T10:32:38;20.50;24.80
10245;DHT22;5167;52.164;10.530;2022-10-16T10:40:51;20.90;18.90
10245;DHT22;5167;52.164;10.530;2022-10-16T10:45:53;21.10;15.60
10245;DHT22;5167;52.164;10.530;2022-10-16T10:48:44;21.20;16.30
10245;DHT22;5167;52.164;10.530;2022-10-16T10:51:30;21.40;14.30
10245;DHT22;5167;52.164;10.530;2022-10-16T10:56:56;21.50;11.30
10245;DHT22;5167;52.164;10.530;2022-10-16T11:02:48;21.40;10.50
10245;DHT22;5167;52.164;10.530;2022-10-16T11:05:28;21.40;10.30
10245;DHT22;5167;52.164;10.530;2022-10-16T11:08:02;21.40;10.10
10245;DHT22;5167;52.164;10.530;2022-10-16T11:11:10;21.40;10.60
10245;DHT22;5167;52.164;10.530;2022-10-16T11:13:39;21.50;7.50
10245;DHT22;5167;52.164;10.530;2022-10-16T11:16:27;21.50;6.30
10245;DHT22;5167;52.164;10.530;2022-10-16T11:19:26;21.40;7.60
10245;DHT22;5167;52.164;10.530;2022-10-16T11:22:23;21.50;6.50
10245;DHT22;5167;52.164;10.530;2022-10-16T11:25:15;21.50;5.00
10245;DHT22;5167;52.164;10.530;2022-10-16T11:28:08;21.60;5.00
10245;DHT22;5167;52.164;10.530;2022-10-16T11:31:05;21.70;6.00
10245;DHT22;5167;52.164;10.530;2022-10-16T11:33:40;21.80;5.00
10245;DHT22;5167;52.164;10.530;2022-10-16T11:36:14;21.80;5.00
10245;DHT22;5167;52.164;10.530;2022-10-16T11:45:02;21.70;5.00
10245;DHT22;5167;52.164;10.530;2022-10-16T11:47:43;21.70;5.00
10245;DHT22;5167;52.164;10.530;2022-10-16T11:55:26;21.80;5.00
10245;DHT22;5167;52.164;10.530;2022-10-16T12:01:05;21.80;5.00
10245;DHT22;5167;52.164;10.530;2022-10-16T12:03:43;21.80;5.00
10245;DHT22;5167;52.164;10.530;2022-10-16T12:06:43;21.80;5.00
10245;DHT22;5167;52.164;10.530;2022-10-16T12:09:36;21.90;5.00
10245;DHT22;5167;52.164;10.530;2022-10-16T12:12:03;21.80;5.00
10245;DHT22;5167;52.164;10.530;2022-10-16T12:16:58;21.80;5.00
10245;DHT22;5167;52.164;10.530;2022-10-16T12:19:26;21.70;5.00
10245;DHT22;5167;52.164;10.530;2022-10-16T12:21:55;21.70;5.00
10245;DHT22;5167;52.164;10.530;2022-10-16T12:24:35;21.70;5.00
10245;DHT22;5167;52.164;10.530;2022-10-16T12:27:01;21.80;5.00
10245;DHT22;5167;52.164;10.530;2022-10-16T12:29:37;21.70;5.00
10245;DHT22;5167;52.164;10.530;2022-10-16T12:32:32;21.80;5.00
10245;DHT22;5167;52.164;10.530;2022-10-16T12:35:00;21.80;5.00
10245;DHT22;5167;52.164;10.530;2022-10-16T12:37:36;21.80;5.00
10245;DHT22;5167;52.164;10.530;2022-10-16T12:42:50;21.90;5.00
10245;DHT22;5167;52.164;10.530;2022-10-16T12:45:32;21.90;5.00
10245;DHT22;5167;52.164;10.530;2022-10-16T12:48:01;21.90;5.00
10245;DHT22;5167;52.164;10.530;2022-10-16T12:50:30;21.80;5.00
10245;DHT22;5167;52.164;10.530;2022-10-16T12:52:57;21.80;5.00
10245;DHT22;5167;52.164;10.530;2022-10-16T12:55:23;21.80;5.00
10245;DHT22;5167;52.164;10.530;2022-10-16T12:58:18;21.90;5.00
10245;DHT22;5167;52.164;10.530;2022-10-16T13:00:57;21.80;5.00
10245;DHT22;5167;52.164;10.530;2022-10-16T13:17:35;21.60;5.00
10245;DHT22;5167;52.164;10.530;2022-10-16T13:20:35;21.60;5.00
10245;DHT22;5167;52.164;10.530;2022-10-16T13:26:11;21.60;5.00
10245;DHT22;5167;52.164;10.530;2022-10-16T13:28:39;21.50;5.00
10245;DHT22;5167;52.164;10.530;2022-10-16T13:31:05;21.40;5.00
10245;DHT22;5167;52.164;10.530;2022-10-16T13:33:38;21.50;5.00
10245;DHT22;5167;52.164;10.530;2022-10-16T13:36:05;21.50;5.00
10245;DHT22;5167;52.164;10.530;2022-10-16T13:38:33;21.50;5.00
10245;DHT22;5167;52.164;10.530;2022-10-16T13:41:05;21.50;5.00
10245;DHT22;5167;52.164;10.530;2022-10-16T13:43:51;21.50;5.00
10245;DHT22;5167;52.164;10.530;2022-10-16T13:46:19;21.40;5.00
10245;DHT22;5167;52.164;10.530;2022-10-16T13:48:55;21.30;5.00
10245;DHT22;5167;52.164;10.530;2022-10-16T13:51:21;21.30;5.00
10245;DHT22;5167;52.164;10.530;2022-10-16T13:53:52;21.30;5.00
10245;DHT22;5167;52.164;10.530;2022-10-16T13:56:20;21.30;5.00
10245;DHT22;5167;52.164;10.530;2022-10-16T13:58:57;21.30;5.00
10245;DHT22;5167;52.164;10.530;2022-10-16T14:01:24;21.30;5.00
10245;DHT22;5167;52.164;10.530;2022-10-16T14:03:51;21.30;5.00
10245;DHT22;5167;52.164;10.530;2022-10-16T14:06:21;21.30;5.00
10245;DHT22;5167;52.164;10.530;2022-10-16T14:09:12;21.20;5.00
10245;DHT22;5167;52.164;10.530;2022-10-16T14:11:50;21.30;5.00
10245;DHT22;5167;52.164;10.530;2022-10-16T14:14:18;21.20;5.00
10245;DHT22;5167;52.164;10.530;2022-10-16T14:16:44;21.20;5.00
10245;DHT22;5167;52.164;10.530;2022-10-16T14:19:28;21.20;5.00
10245;DHT22;5167;52.164;10.530;2022-10-16T14:21:54;21.10;5.00
10245;DHT22;5167;52.164;10.530;2022-10-16T14:26:56;21.10;5.00
10245;DHT22;5167;52.164;10.530;2022-10-16T14:29:24;21.00;5.00
10245;DHT22;5167;52.164;10.530;2022-10-16T14:32:01;21.00;5.00
10245;DHT22;5167;52.164;10.530;2022-10-16T14:34:32;21.10;5.00
10245;DHT22;5167;52.164;10.530;2022-10-16T14:37:20;21.30;5.00
10245;DHT22;5167;52.164;10.530;2022-10-16T14:39:52;21.00;5.00
10245;DHT22;5167;52.164;10.530;2022-10-16T14:42:20;21.00;5.00
10245;DHT22;5167;52.164;10.530;2022-10-16T14:44:48;21.00;5.00
10245;DHT22;5167;52.164;10.530;2022-10-16T14:47:20;21.00;5.00
10245;DHT22;5167;52.164;10.530;2022-10-16T14:49:52;20.90;5.00
10245;DHT22;5167;52.164;10.530;2022-10-16T14:52:18;20.90;5.00
10245;DHT22;5167;52.164;10.530;2022-10-16T14:54:48;20.90;5.00
10245;DHT22;5167;52.164;10.530;2022-10-16T14:57:17;20.90;5.00
10245;DHT22;5167;52.164;10.530;2022-10-16T14:59:44;20.80;5.00
10245;DHT22;5167;52.164;10.530;2022-10-16T15:02:30;20.90;5.00
10245;DHT22;5167;52.164;10.530;2022-10-16T15:04:56;20.90;5.00
10245;DHT22;5167;52.164;10.530;2022-10-16T15:07:23;20.90;5.00
10245;DHT22;5167;52.164;10.530;2022-10-16T15:09:48;20.90;5.00
10245;DHT22;5167;52.164;10.530;2022-10-16T15:12:14;20.90;5.00
10245;DHT22;5167;52.164;10.530;2022-10-16T15:14:40;20.80;5.00
10245;DHT22;5167;52.164;10.530;2022-10-16T15:17:07;20.90;5.00
10245;DHT22;5167;52.164;10.530;2022-10-16T15:19:33;20.80;5.00
10245;DHT22;5167;52.164;10.530;2022-10-16T15:21:59;20.80;5.00
10245;DHT22;5167;52.164;10.530;2022-10-16T15:24:25;20.90;5.00
10245;DHT22;5167;52.164;10.530;2022-10-16T15:26:50;20.90;5.00
10245;DHT22;5167;52.164;10.530;2022-10-16T15:29:16;20.80;5.00
10245;DHT22;5167;52.164;10.530;2022-10-16T15:31:41;20.80;5.00
10245;DHT22;5167;52.164;10.530;2022-10-16T15:34:12;20.80;5.00
10245;DHT22;5167;52.164;10.530;2022-10-16T15:36:39;20.80;5.00
10245;DHT22;5167;52.164;10.530;2022-10-16T15:39:08;20.80;5.00
10245;DHT22;5167;52.164;10.530;2022-10-16T15:41:35;20.80;5.00
10245;DHT22;5167;52.164;10.530;2022-10-16T15:44:01;20.70;5.00
10245;DHT22;5167;52.164;10.530;2022-10-16T15:46:26;20.70;5.00
10245;DHT22;5167;52.164;10.530;2022-10-16T15:48:57;20.70;5.00
10245;DHT22;5167;52.164;10.530;2022-10-16T15:51:23;20.70;5.00
10245;DHT22;5167;52.164;10.530;2022-10-16T15:53:48;20.70;5.00
10245;DHT22;5167;52.164;10.530;2022-10-16T15:56:16;20.60;5.00
10245;DHT22;5167;52.164;10.530;2022-10-16T15:58:42;20.60;5.00
10245;DHT22;5167;52.164;10.530;2022-10-16T16:01:08;20.50;5.00
10245;DHT22;5167;52.164;10.530;2022-10-16T16:03:35;20.60;5.00
10245;DHT22;5167;52.164;10.530;2022-10-16T16:06:09;20.50;5.00
10245;DHT22;5167;52.164;10.530;2022-10-16T16:08:35;20.50;5.00
10245;DHT22;5167;52.164;10.530;2022-10-16T16:13:28;20.40;5.00
10245;DHT22;5167;52.164;10.530;2022-10-16T16:15:54;20.40;5.00
10245;DHT22;5167;52.164;10.530;2022-10-16T16:18:19;20.30;5.00
10245;DHT22;5167;52.164;10.530;2022-10-16T16:20:45;20.30;5.00
10245;DHT22;5167;52.164;10.530;2022-10-16T16:23:10;20.30;5.00
10245;DHT22;5167;52.164;10.530;2022-10-16T16:25:36;20.20;5.00
10245;DHT22;5167;52.164;10.530;2022-10-16T16:28:02;20.20;5.00
10245;DHT22;5167;52.164;10.530;2022-10-16T16:30:27;20.00;5.00
10245;DHT22;5167;52.164;10.530;2022-10-16T16:32:53;20.10;5.10
10245;DHT22;5167;52.164;10.530;2022-10-16T16:35:18;20.00;5.00
10245;DHT22;5167;52.164;10.530;2022-10-16T16:37:44;19.90;5.70
10245;DHT22;5167;52.164;10.530;2022-10-16T16:40:09;19.80;6.50
10245;DHT22;5167;52.164;10.530;2022-10-16T16:42:35;19.80;7.00
10245;DHT22;5167;52.164;10.530;2022-10-16T16:45:00;19.70;7.80
10245;DHT22;5167;52.164;10.530;2022-10-16T16:47:26;19.50;7.80
10245;DHT22;5167;52.164;10.530;2022-10-16T16:49:51;19.50;8.60
10245;DHT22;5167;52.164;10.530;2022-10-16T16:52:17;19.40;8.80
10245;DHT22;5167;52.164;10.530;2022-10-16T16:54:43;19.40;8.70
10245;DHT22;5167;52.164;10.530;2022-10-16T16:57:10;19.30;9.70
10245;DHT22;5167;52.164;10.530;2022-10-16T16:59:36;19.10;10.30
10245;DHT22;5167;52.164;10.530;2022-10-16T17:02:02;19.10;10.20
10245;DHT22;5167;52.164;10.530;2022-10-16T17:04:28;19.00;10.40
10245;DHT22;5167;52.164;10.530;2022-10-16T17:06:54;18.90;10.80
10245;DHT22;5167;52.164;10.530;2022-10-16T17:09:20;18.90;12.10
10245;DHT22;5167;52.164;10.530;2022-10-16T17:11:46;18.90;11.20
10245;DHT22;5167;52.164;10.530;2022-10-16T17:14:14;18.80;11.00
10245;DHT22;5167;52.164;10.530;2022-10-16T17:16:40;18.70;11.20